sensor_id;sensor_type;location;lat;lon;timestamp;P1;durP1;ratioP1;P2;durP2;ratioP2
3297;SDS011;1661;53.572;10.174;2023-11-19T00:00:15;13.33;;;10.73;;
3297;SDS011;1661;53.572;10.174;2023-11-19T00:02:43;12.77;;;8.60;;
3297;SDS011;1661;53.572;10.174;2023-11-19T00:05:10;12.10;;;9.40;;
3297;SDS011;1661;53.572;10.174;2023-11-19T00:07:37;13.37;;;9.67;;
3297;SDS011;1661;53.572;10.174;2023-11-19T00:10:06;12.90;;;9.40;;
3297;SDS011;1661;53.572;10.174;2023-11-19T00:12:35;10.63;;;8.60;;
3297;SDS011;1661;53.572;10.174;2023-11-19T00:15:03;10.63;;;7.60;;
3297;SDS011;1661;53.572;10.174;2023-11-19T00:17:31;11.20;;;7.67;;
3297;SDS011;1661;53.572;10.174;2023-11-19T00:19:58;11.77;;;8.93;;
3297;SDS011;1661;53.572;10.174;2023-11-19T00:22:25;11.60;;;7.90;;
3297;SDS011;1661;53.572;10.174;2023-11-19T00:24:52;8.90;;;7.80;;
3297;SDS011;1661;53.572;10.174;2023-11-19T00:27:19;12.03;;;7.60;;
3297;SDS011;1661;53.572;10.174;2023-11-19T00:29:46;11.10;;;7.70;;
3297;SDS011;1661;53.572;10.174;2023-11-19T00:32:14;10.57;;;7.47;;
3297;SDS011;1661;53.572;10.174;2023-11-19T00:34:43;8.90;;;6.33;;
3297;SDS011;1661;53.572;10.174;2023-11-19T00:37:10;8.27;;;6.80;;
3297;SDS011;1661;53.572;10.174;2023-11-19T00:39:37;8.87;;;5.87;;
3297;SDS011;1661;53.572;10.174;2023-11-19T00:42:04;7.30;;;6.30;;
3297;SDS011;1661;53.572;10.174;2023-11-19T00:44:31;8.73;;;6.80;;
3297;SDS011;1661;53.572;10.174;2023-11-19T00:46:57;7.03;;;5.13;;
3297;SDS011;1661;53.572;10.174;2023-11-19T00:49:26;7.20;;;5.07;;
3297;SDS011;1661;53.572;10.174;2023-11-19T00:51:52;6.30;;;5.70;;
3297;SDS011;1661;53.572;10.174;2023-11-19T00:54:19;5.53;;;5.00;;
3297;SDS011;1661;53.572;10.174;2023-11-19T00:56:45;5.90;;;5.30;;
3297;SDS011;1661;53.572;10.174;2023-11-19T00:59:12;8.23;;;5.10;;
3297;SDS011;1661;53.572;10.174;2023-11-19T01:01:39;4.70;;;4.30;;
3297;SDS011;1661;53.572;10.174;2023-11-19T01:04:05;4.63;;;4.03;;
3297;SDS011;1661;53.572;10.174;2023-11-19T01:06:34;4.80;;;4.40;;
3297;SDS011;1661;53.572;10.174;2023-11-19T01:09:01;5.73;;;5.20;;
3297;SDS011;1661;53.572;10.174;2023-11-19T01:11:28;5.87;;;5.27;;
3297;SDS011;1661;53.572;10.174;2023-11-19T01:13:55;5.00;;;4.03;;
3297;SDS011;1661;53.572;10.174;2023-11-19T01:16:22;4.97;;;4.27;;
3297;SDS011;1661;53.572;10.174;2023-11-19T01:18:49;4.80;;;4.40;;
3297;SDS011;1661;53.572;10.174;2023-11-19T01:21:15;3.90;;;3.60;;
3297;SDS011;1661;53.572;10.174;2023-11-19T01:23:44;5.23;;;4.00;;
3297;SDS011;1661;53.572;10.174;2023-11-19T01:26:10;4.57;;;4.17;;
3297;SDS011;1661;53.572;10.174;2023-11-19T01:28:38;3.70;;;3.40;;
3297;SDS011;1661;53.572;10.174;2023-11-19T01:31:08;4.53;;;4.13;;
3297;SDS011;1661;53.572;10.174;2023-11-19T01:33:35;3.50;;;3.20;;
3297;SDS011;1661;53.572;10.174;2023-11-19T01:36:02;3.83;;;3.47;;
3297;SDS011;1661;53.572;10.174;2023-11-19T01:38:30;3.70;;;3.30;;
3297;SDS011;1661;53.572;10.174;2023-11-19T01:40:58;3.07;;;2.77;;
3297;SDS011;1661;53.572;10.174;2023-11-19T01:43:31;4.33;;;3.37;;
3297;SDS011;1661;53.572;10.174;2023-11-19T01:46:02;5.07;;;3.33;;
3297;SDS011;1661;53.572;10.174;2023-11-19T01:48:30;3.53;;;3.13;;
3297;SDS011;1661;53.572;10.174;2023-11-19T01:50:59;3.17;;;2.87;;
3297;SDS011;1661;53.572;10.174;2023-11-19T01:53:28;3.30;;;2.37;;
3297;SDS011;1661;53.572;10.174;2023-11-19T01:55:58;2.60;;;2.40;;
3297;SDS011;1661;53.572;10.174;2023-11-19T01:58:25;2.60;;;2.40;;
3297;SDS011;1661;53.572;10.174;2023-11-19T02:00:52;2.50;;;2.30;;
3297;SDS011;1661;53.572;10.174;2023-11-19T02:03:19;2.43;;;2.23;;
3297;SDS011;1661;53.572;10.174;2023-11-19T02:05:48;3.53;;;2.27;;
3297;SDS011;1661;53.572;10.174;2023-11-19T02:08:16;2.40;;;2.20;;
3297;SDS011;1661;53.572;10.174;2023-11-19T02:10:42;2.50;;;2.30;;
3297;SDS011;1661;53.572;10.174;2023-11-19T02:13:11;2.53;;;2.33;;
3297;SDS011;1661;53.572;10.174;2023-11-19T02:15:39;2.20;;;2.10;;
3297;SDS011;1661;53.572;10.174;2023-11-19T02:18:19;2.50;;;2.07;;
3297;SDS011;1661;53.572;10.174;2023-11-19T02:20:46;1.90;;;1.70;;
3297;SDS011;1661;53.572;10.174;2023-11-19T02:23:14;2.17;;;1.97;;
3297;SDS011;1661;53.572;10.174;2023-11-19T02:25:41;1.63;;;1.53;;
3297;SDS011;1661;53.572;10.174;2023-11-19T02:28:16;1.57;;;1.47;;
3297;SDS011;1661;53.572;10.174;2023-11-19T02:30:43;2.20;;;1.90;;
3297;SDS011;1661;53.572;10.174;2023-11-19T02:33:10;2.67;;;2.00;;
3297;SDS011;1661;53.572;10.174;2023-11-19T02:35:37;2.67;;;1.80;;
3297;SDS011;1661;53.572;10.174;2023-11-19T02:38:05;2.17;;;1.90;;
3297;SDS011;1661;53.572;10.174;2023-11-19T02:40:33;1.80;;;1.70;;
3297;SDS011;1661;53.572;10.174;2023-11-19T02:42:59;2.50;;;2.30;;
3297;SDS011;1661;53.572;10.174;2023-11-19T02:45:28;3.30;;;1.93;;
3297;SDS011;1661;53.572;10.174;2023-11-19T02:47:56;2.10;;;1.83;;
3297;SDS011;1661;53.572;10.174;2023-11-19T02:50:23;4.30;;;1.83;;
3297;SDS011;1661;53.572;10.174;2023-11-19T02:52:51;2.63;;;2.43;;
3297;SDS011;1661;53.572;10.174;2023-11-19T02:55:21;2.07;;;1.90;;
3297;SDS011;1661;53.572;10.174;2023-11-19T02:57:49;2.50;;;2.30;;
3297;SDS011;1661;53.572;10.174;2023-11-19T03:00:18;2.17;;;2.07;;
3297;SDS011;1661;53.572;10.174;2023-11-19T03:02:50;2.37;;;1.70;;
3297;SDS011;1661;53.572;10.174;2023-11-19T03:05:24;3.10;;;2.10;;
3297;SDS011;1661;53.572;10.174;2023-11-19T03:07:51;2.93;;;2.73;;
3297;SDS011;1661;53.572;10.174;2023-11-19T03:10:18;2.60;;;2.30;;
3297;SDS011;1661;53.572;10.174;2023-11-19T03:12:45;3.23;;;2.20;;
3297;SDS011;1661;53.572;10.174;2023-11-19T03:15:12;2.20;;;2.00;;
3297;SDS011;1661;53.572;10.174;2023-11-19T03:17:40;4.07;;;2.40;;
3297;SDS011;1661;53.572;10.174;2023-11-19T03:20:09;2.47;;;2.03;;
3297;SDS011;1661;53.572;10.174;2023-11-19T03:22:41;2.50;;;2.30;;
3297;SDS011;1661;53.572;10.174;2023-11-19T03:25:09;2.50;;;2.30;;
3297;SDS011;1661;53.572;10.174;2023-11-19T03:27:36;2.53;;;2.33;;
3297;SDS011;1661;53.572;10.174;2023-11-19T03:30:05;2.40;;;2.20;;
3297;SDS011;1661;53.572;10.174;2023-11-19T03:32:32;2.97;;;2.60;;
3297;SDS011;1661;53.572;10.174;2023-11-19T03:35:00;3.77;;;2.60;;
3297;SDS011;1661;53.572;10.174;2023-11-19T03:37:30;2.60;;;2.40;;
3297;SDS011;1661;53.572;10.174;2023-11-19T03:39:58;3.40;;;2.47;;
3297;SDS011;1661;53.572;10.174;2023-11-19T03:42:25;3.20;;;2.90;;
3297;SDS011;1661;53.572;10.174;2023-11-19T03:44:52;2.87;;;2.67;;
3297;SDS011;1661;53.572;10.174;2023-11-19T03:47:19;2.93;;;2.67;;
3297;SDS011;1661;53.572;10.174;2023-11-19T03:49:47;2.80;;;2.60;;
3297;SDS011;1661;53.572;10.174;2023-11-19T03:52:15;3.00;;;2.80;;
3297;SDS011;1661;53.572;10.174;2023-11-19T03:54:43;2.70;;;2.50;;
3297;SDS011;1661;53.572;10.174;2023-11-19T03:57:10;3.47;;;3.17;;
3297;SDS011;1661;53.572;10.174;2023-11-19T03:59:38;3.57;;;3.37;;
3297;SDS011;1661;53.572;10.174;2023-11-19T04:02:05;4.07;;;3.87;;
3297;SDS011;1661;53.572;10.174;2023-11-19T04:04:32;4.40;;;4.00;;
3297;SDS011;1661;53.572;10.174;2023-11-19T04:07:00;3.70;;;3.40;;
3297;SDS011;1661;53.572;10.174;2023-11-19T04:09:28;4.80;;;4.40;;
3297;SDS011;1661;53.572;10.174;2023-11-19T04:11:56;5.00;;;4.43;;
3297;SDS011;1661;53.572;10.174;2023-11-19T04:14:23;4.03;;;3.30;;
3297;SDS011;1661;53.572;10.174;2023-11-19T04:16:50;4.70;;;4.30;;
3297;SDS011;1661;53.572;10.174;2023-11-19T04:19:17;4.50;;;4.20;;
3297;SDS011;1661;53.572;10.174;2023-11-19T04:21:44;4.70;;;4.30;;
3297;SDS011;1661;53.572;10.174;2023-11-19T04:24:10;4.37;;;3.90;;
3297;SDS011;1661;53.572;10.174;2023-11-19T04:26:40;5.17;;;4.77;;
3297;SDS011;1661;53.572;10.174;2023-11-19T04:29:09;7.50;;;4.57;;
3297;SDS011;1661;53.572;10.174;2023-11-19T04:31:37;4.60;;;4.13;;
3297;SDS011;1661;53.572;10.174;2023-11-19T04:34:04;4.90;;;4.50;;
3297;SDS011;1661;53.572;10.174;2023-11-19T04:36:31;6.87;;;5.70;;
3297;SDS011;1661;53.572;10.174;2023-11-19T04:38:58;5.63;;;5.23;;
3297;SDS011;1661;53.572;10.174;2023-11-19T04:41:25;5.70;;;5.00;;
3297;SDS011;1661;53.572;10.174;2023-11-19T04:43:52;5.93;;;5.30;;
3297;SDS011;1661;53.572;10.174;2023-11-19T04:46:21;5.97;;;5.47;;
3297;SDS011;1661;53.572;10.174;2023-11-19T04:48:49;8.00;;;5.10;;
3297;SDS011;1661;53.572;10.174;2023-11-19T04:51:16;6.23;;;5.70;;
3297;SDS011;1661;53.572;10.174;2023-11-19T04:53:43;6.13;;;5.63;;
3297;SDS011;1661;53.572;10.174;2023-11-19T04:56:10;7.70;;;5.93;;
3297;SDS011;1661;53.572;10.174;2023-11-19T04:58:38;9.40;;;6.67;;
3297;SDS011;1661;53.572;10.174;2023-11-19T05:01:05;8.10;;;6.70;;
3297;SDS011;1661;53.572;10.174;2023-11-19T05:03:33;7.73;;;7.03;;
3297;SDS011;1661;53.572;10.174;2023-11-19T05:06:01;8.20;;;6.77;;
3297;SDS011;1661;53.572;10.174;2023-11-19T05:08:28;9.97;;;7.90;;
3297;SDS011;1661;53.572;10.174;2023-11-19T05:10:54;8.87;;;7.47;;
3297;SDS011;1661;53.572;10.174;2023-11-19T05:13:22;10.73;;;8.20;;
3297;SDS011;1661;53.572;10.174;2023-11-19T05:15:49;8.00;;;7.17;;
3297;SDS011;1661;53.572;10.174;2023-11-19T05:18:16;8.97;;;7.57;;
3297;SDS011;1661;53.572;10.174;2023-11-19T05:20:44;10.37;;;8.00;;
3297;SDS011;1661;53.572;10.174;2023-11-19T05:23:11;9.27;;;8.30;;
3297;SDS011;1661;53.572;10.174;2023-11-19T05:25:38;10.70;;;8.77;;
3297;SDS011;1661;53.572;10.174;2023-11-19T05:28:05;11.83;;;8.60;;
3297;SDS011;1661;53.572;10.174;2023-11-19T05:30:31;13.40;;;9.73;;
3297;SDS011;1661;53.572;10.174;2023-11-19T05:32:58;11.50;;;8.83;;
3297;SDS011;1661;53.572;10.174;2023-11-19T05:35:25;11.33;;;8.60;;
3297;SDS011;1661;53.572;10.174;2023-11-19T05:37:54;13.03;;;9.60;;
3297;SDS011;1661;53.572;10.174;2023-11-19T05:40:21;13.70;;;10.73;;
3297;SDS011;1661;53.572;10.174;2023-11-19T05:42:48;13.23;;;10.13;;
3297;SDS011;1661;53.572;10.174;2023-11-19T05:45:14;14.53;;;11.93;;
3297;SDS011;1661;53.572;10.174;2023-11-19T05:47:41;19.93;;;12.47;;
3297;SDS011;1661;53.572;10.174;2023-11-19T05:50:09;21.93;;;11.27;;
3297;SDS011;1661;53.572;10.174;2023-11-19T05:52:36;17.37;;;12.03;;
3297;SDS011;1661;53.572;10.174;2023-11-19T05:55:04;16.30;;;12.43;;
3297;SDS011;1661;53.572;10.174;2023-11-19T05:57:34;22.63;;;14.00;;
3297;SDS011;1661;53.572;10.174;2023-11-19T06:00:01;14.43;;;11.67;;
3297;SDS011;1661;53.572;10.174;2023-11-19T06:02:32;18.17;;;12.10;;
3297;SDS011;1661;53.572;10.174;2023-11-19T06:04:59;21.30;;;14.03;;
3297;SDS011;1661;53.572;10.174;2023-11-19T06:07:26;24.87;;;13.50;;
3297;SDS011;1661;53.572;10.174;2023-11-19T06:09:52;17.77;;;12.00;;
3297;SDS011;1661;53.572;10.174;2023-11-19T06:12:20;25.87;;;12.20;;
3297;SDS011;1661;53.572;10.174;2023-11-19T06:14:47;18.97;;;13.33;;
3297;SDS011;1661;53.572;10.174;2023-11-19T06:17:14;17.33;;;14.00;;
3297;SDS011;1661;53.572;10.174;2023-11-19T06:19:41;22.03;;;14.77;;
3297;SDS011;1661;53.572;10.174;2023-11-19T06:22:08;21.57;;;14.47;;
3297;SDS011;1661;53.572;10.174;2023-11-19T06:24:34;20.67;;;15.20;;
3297;SDS011;1661;53.572;10.174;2023-11-19T06:27:01;21.60;;;15.77;;
3297;SDS011;1661;53.572;10.174;2023-11-19T06:29:30;30.83;;;16.37;;
3297;SDS011;1661;53.572;10.174;2023-11-19T06:31:57;24.73;;;14.33;;
3297;SDS011;1661;53.572;10.174;2023-11-19T06:34:24;21.33;;;14.33;;
3297;SDS011;1661;53.572;10.174;2023-11-19T06:36:51;20.80;;;15.00;;
3297;SDS011;1661;53.572;10.174;2023-11-19T06:39:18;24.77;;;15.17;;
3297;SDS011;1661;53.572;10.174;2023-11-19T06:41:45;43.47;;;18.87;;
3297;SDS011;1661;53.572;10.174;2023-11-19T06:44:12;34.70;;;15.80;;
3297;SDS011;1661;53.572;10.174;2023-11-19T06:46:40;38.63;;;17.90;;
3297;SDS011;1661;53.572;10.174;2023-11-19T06:49:07;37.87;;;16.23;;
3297;SDS011;1661;53.572;10.174;2023-11-19T06:51:34;41.70;;;18.30;;
3297;SDS011;1661;53.572;10.174;2023-11-19T06:54:01;44.43;;;19.10;;
3297;SDS011;1661;53.572;10.174;2023-11-19T06:56:27;55.67;;;18.00;;
3297;SDS011;1661;53.572;10.174;2023-11-19T06:58:54;40.23;;;17.37;;
3297;SDS011;1661;53.572;10.174;2023-11-19T07:01:21;51.97;;;16.57;;
3297;SDS011;1661;53.572;10.174;2023-11-19T07:03:49;52.93;;;16.27;;
3297;SDS011;1661;53.572;10.174;2023-11-19T07:06:16;43.70;;;18.20;;
3297;SDS011;1661;53.572;10.174;2023-11-19T07:08:43;51.53;;;17.70;;
3297;SDS011;1661;53.572;10.174;2023-11-19T07:11:10;58.73;;;18.37;;
3297;SDS011;1661;53.572;10.174;2023-11-19T07:13:38;54.53;;;17.00;;
3297;SDS011;1661;53.572;10.174;2023-11-19T07:16:06;56.70;;;15.87;;
3297;SDS011;1661;53.572;10.174;2023-11-19T07:18:35;53.50;;;16.37;;
3297;SDS011;1661;53.572;10.174;2023-11-19T07:21:04;54.97;;;16.00;;
3297;SDS011;1661;53.572;10.174;2023-11-19T07:23:31;52.97;;;16.40;;
3297;SDS011;1661;53.572;10.174;2023-11-19T07:25:58;43.40;;;14.93;;
3297;SDS011;1661;53.572;10.174;2023-11-19T07:28:25;47.23;;;14.67;;
3297;SDS011;1661;53.572;10.174;2023-11-19T07:30:53;43.00;;;13.10;;
3297;SDS011;1661;53.572;10.174;2023-11-19T07:33:21;38.70;;;13.77;;
3297;SDS011;1661;53.572;10.174;2023-11-19T07:35:48;47.70;;;13.47;;
3297;SDS011;1661;53.572;10.174;2023-11-19T07:38:17;33.50;;;11.80;;
3297;SDS011;1661;53.572;10.174;2023-11-19T07:40:44;51.57;;;12.97;;
3297;SDS011;1661;53.572;10.174;2023-11-19T07:43:11;48.00;;;13.30;;
3297;SDS011;1661;53.572;10.174;2023-11-19T07:45:37;37.60;;;10.50;;
3297;SDS011;1661;53.572;10.174;2023-11-19T07:48:04;33.73;;;11.37;;
3297;SDS011;1661;53.572;10.174;2023-11-19T07:50:31;51.40;;;10.43;;
3297;SDS011;1661;53.572;10.174;2023-11-19T07:52:58;45.53;;;10.93;;
3297;SDS011;1661;53.572;10.174;2023-11-19T07:55:26;51.53;;;10.40;;
3297;SDS011;1661;53.572;10.174;2023-11-19T07:57:53;39.10;;;10.67;;
3297;SDS011;1661;53.572;10.174;2023-11-19T08:00:20;41.27;;;10.53;;
3297;SDS011;1661;53.572;10.174;2023-11-19T08:02:47;35.83;;;10.50;;
3297;SDS011;1661;53.572;10.174;2023-11-19T08:05:14;39.07;;;11.80;;
3297;SDS011;1661;53.572;10.174;2023-11-19T08:07:41;42.77;;;10.50;;
3297;SDS011;1661;53.572;10.174;2023-11-19T08:10:08;51.67;;;11.10;;
3297;SDS011;1661;53.572;10.174;2023-11-19T08:12:38;45.17;;;11.63;;
3297;SDS011;1661;53.572;10.174;2023-11-19T08:15:05;44.27;;;10.77;;
3297;SDS011;1661;53.572;10.174;2023-11-19T08:17:32;41.27;;;9.57;;
3297;SDS011;1661;53.572;10.174;2023-11-19T08:20:01;45.70;;;10.20;;
3297;SDS011;1661;53.572;10.174;2023-11-19T08:22:30;40.90;;;11.27;;
3297;SDS011;1661;53.572;10.174;2023-11-19T08:24:56;48.30;;;10.40;;
3297;SDS011;1661;53.572;10.174;2023-11-19T08:27:23;61.00;;;11.10;;
3297;SDS011;1661;53.572;10.174;2023-11-19T08:29:53;54.93;;;10.73;;
3297;SDS011;1661;53.572;10.174;2023-11-19T08:32:21;46.40;;;10.40;;
3297;SDS011;1661;53.572;10.174;2023-11-19T08:34:48;36.23;;;9.80;;
3297;SDS011;1661;53.572;10.174;2023-11-19T08:37:15;32.13;;;9.80;;
3297;SDS011;1661;53.572;10.174;2023-11-19T08:39:43;48.60;;;11.17;;
3297;SDS011;1661;53.572;10.174;2023-11-19T08:42:09;36.10;;;8.97;;
3297;SDS011;1661;53.572;10.174;2023-11-19T08:44:36;53.37;;;10.73;;
3297;SDS011;1661;53.572;10.174;2023-11-19T08:47:04;39.30;;;9.70;;
3297;SDS011;1661;53.572;10.174;2023-11-19T08:49:31;32.00;;;8.73;;
3297;SDS011;1661;53.572;10.174;2023-11-19T08:51:58;47.77;;;9.47;;
3297;SDS011;1661;53.572;10.174;2023-11-19T08:54:25;43.07;;;9.67;;
3297;SDS011;1661;53.572;10.174;2023-11-19T08:56:51;35.93;;;9.43;;
3297;SDS011;1661;53.572;10.174;2023-11-19T08:59:18;44.50;;;10.33;;
3297;SDS011;1661;53.572;10.174;2023-11-19T09:01:45;38.17;;;8.63;;
3297;SDS011;1661;53.572;10.174;2023-11-19T09:04:13;57.70;;;10.50;;
3297;SDS011;1661;53.572;10.174;2023-11-19T09:06:41;40.33;;;9.80;;
3297;SDS011;1661;53.572;10.174;2023-11-19T09:09:09;35.90;;;9.10;;
3297;SDS011;1661;53.572;10.174;2023-11-19T09:11:35;35.77;;;7.73;;
3297;SDS011;1661;53.572;10.174;2023-11-19T09:14:03;38.10;;;8.57;;
3297;SDS011;1661;53.572;10.174;2023-11-19T09:16:30;39.33;;;9.70;;
3297;SDS011;1661;53.572;10.174;2023-11-19T09:18:57;42.27;;;10.30;;
3297;SDS011;1661;53.572;10.174;2023-11-19T09:21:25;35.57;;;9.53;;
3297;SDS011;1661;53.572;10.174;2023-11-19T09:23:54;49.53;;;10.30;;
3297;SDS011;1661;53.572;10.174;2023-11-19T09:26:21;43.20;;;10.27;;
3297;SDS011;1661;53.572;10.174;2023-11-19T09:28:48;53.93;;;9.80;;
3297;SDS011;1661;53.572;10.174;2023-11-19T09:31:16;48.67;;;8.53;;
3297;SDS011;1661;53.572;10.174;2023-11-19T09:33:44;41.37;;;10.63;;
3297;SDS011;1661;53.572;10.174;2023-11-19T09:36:11;51.77;;;9.07;;
3297;SDS011;1661;53.572;10.174;2023-11-19T09:38:40;41.33;;;9.43;;
3297;SDS011;1661;53.572;10.174;2023-11-19T09:41:07;53.70;;;9.63;;
3297;SDS011;1661;53.572;10.174;2023-11-19T09:43:36;35.70;;;9.90;;
3297;SDS011;1661;53.572;10.174;2023-11-19T09:46:04;41.77;;;9.20;;
3297;SDS011;1661;53.572;10.174;2023-11-19T09:48:32;37.93;;;10.97;;
3297;SDS011;1661;53.572;10.174;2023-11-19T09:51:02;40.40;;;10.60;;
3297;SDS011;1661;53.572;10.174;2023-11-19T09:53:29;36.93;;;9.87;;
3297;SDS011;1661;53.572;10.174;2023-11-19T09:55:58;48.03;;;11.50;;
3297;SDS011;1661;53.572;10.174;2023-11-19T09:58:27;62.13;;;11.33;;
3297;SDS011;1661;53.572;10.174;2023-11-19T10:00:55;44.43;;;12.03;;
3297;SDS011;1661;53.572;10.174;2023-11-19T10:03:23;40.10;;;9.80;;
3297;SDS011;1661;53.572;10.174;2023-11-19T10:05:52;53.33;;;11.87;;
3297;SDS011;1661;53.572;10.174;2023-11-19T10:08:21;38.33;;;10.80;;
3297;SDS011;1661;53.572;10.174;2023-11-19T10:10:48;44.37;;;9.80;;
3297;SDS011;1661;53.572;10.174;2023-11-19T10:13:16;46.53;;;9.37;;
3297;SDS011;1661;53.572;10.174;2023-11-19T10:15:43;51.70;;;9.13;;
3297;SDS011;1661;53.572;10.174;2023-11-19T10:18:10;44.63;;;11.13;;
3297;SDS011;1661;53.572;10.174;2023-11-19T10:20:37;49.47;;;10.53;;
3297;SDS011;1661;53.572;10.174;2023-11-19T10:23:06;33.50;;;9.40;;
3297;SDS011;1661;53.572;10.174;2023-11-19T10:25:33;39.27;;;10.30;;
3297;SDS011;1661;53.572;10.174;2023-11-19T10:28:00;41.33;;;9.53;;
3297;SDS011;1661;53.572;10.174;2023-11-19T10:30:30;41.20;;;10.30;;
3297;SDS011;1661;53.572;10.174;2023-11-19T10:33:02;36.97;;;9.10;;
3297;SDS011;1661;53.572;10.174;2023-11-19T10:35:31;34.87;;;10.00;;
3297;SDS011;1661;53.572;10.174;2023-11-19T10:37:58;49.37;;;10.77;;
3297;SDS011;1661;53.572;10.174;2023-11-19T10:40:37;44.97;;;9.33;;
3297;SDS011;1661;53.572;10.174;2023-11-19T10:43:06;31.80;;;8.00;;
3297;SDS011;1661;53.572;10.174;2023-11-19T10:45:35;38.90;;;11.90;;
3297;SDS011;1661;53.572;10.174;2023-11-19T10:48:02;53.70;;;10.60;;
3297;SDS011;1661;53.572;10.174;2023-11-19T10:50:31;41.13;;;9.13;;
3297;SDS011;1661;53.572;10.174;2023-11-19T10:52:59;80.03;;;11.50;;
3297;SDS011;1661;53.572;10.174;2023-11-19T10:55:26;46.50;;;9.00;;
3297;SDS011;1661;53.572;10.174;2023-11-19T10:57:55;33.90;;;7.70;;
3297;SDS011;1661;53.572;10.174;2023-11-19T11:00:25;48.83;;;10.47;;
3297;SDS011;1661;53.572;10.174;2023-11-19T11:02:59;49.03;;;11.10;;
3297;SDS011;1661;53.572;10.174;2023-11-19T11:05:27;44.33;;;11.30;;
3297;SDS011;1661;53.572;10.174;2023-11-19T11:07:58;55.10;;;13.20;;
3297;SDS011;1661;53.572;10.174;2023-11-19T11:10:26;33.73;;;13.40;;
3297;SDS011;1661;53.572;10.174;2023-11-19T11:12:58;48.13;;;10.87;;
3297;SDS011;1661;53.572;10.174;2023-11-19T11:15:29;48.90;;;15.00;;
3297;SDS011;1661;53.572;10.174;2023-11-19T11:17:58;40.90;;;12.20;;
3297;SDS011;1661;53.572;10.174;2023-11-19T11:20:27;49.33;;;13.33;;
3297;SDS011;1661;53.572;10.174;2023-11-19T11:22:58;35.33;;;9.37;;
3297;SDS011;1661;53.572;10.174;2023-11-19T11:25:38;42.47;;;11.43;;
3297;SDS011;1661;53.572;10.174;2023-11-19T11:28:16;43.93;;;11.57;;
3297;SDS011;1661;53.572;10.174;2023-11-19T11:30:55;38.10;;;10.13;;
3297;SDS011;1661;53.572;10.174;2023-11-19T11:33:38;38.37;;;9.33;;
3297;SDS011;1661;53.572;10.174;2023-11-19T11:36:24;47.60;;;9.53;;
3297;SDS011;1661;53.572;10.174;2023-11-19T11:38:52;32.33;;;11.13;;
3297;SDS011;1661;53.572;10.174;2023-11-19T11:41:25;61.27;;;11.20;;
3297;SDS011;1661;53.572;10.174;2023-11-19T11:43:52;39.73;;;10.13;;
3297;SDS011;1661;53.572;10.174;2023-11-19T11:49:32;38.97;;;8.93;;
3297;SDS011;1661;53.572;10.174;2023-11-19T11:52:03;33.90;;;8.57;;
3297;SDS011;1661;53.572;10.174;2023-11-19T11:54:30;39.60;;;9.70;;
3297;SDS011;1661;53.572;10.174;2023-11-19T11:57:01;39.97;;;7.93;;
3297;SDS011;1661;53.572;10.174;2023-11-19T11:59:31;57.33;;;12.73;;
3297;SDS011;1661;53.572;10.174;2023-11-19T12:02:03;44.97;;;10.00;;
3297;SDS011;1661;53.572;10.174;2023-11-19T12:04:32;38.43;;;9.77;;
3297;SDS011;1661;53.572;10.174;2023-11-19T12:07:04;40.53;;;9.93;;
3297;SDS011;1661;53.572;10.174;2023-11-19T12:09:31;36.30;;;9.73;;
3297;SDS011;1661;53.572;10.174;2023-11-19T12:12:12;46.37;;;8.90;;
3297;SDS011;1661;53.572;10.174;2023-11-19T12:14:59;43.17;;;10.20;;
3297;SDS011;1661;53.572;10.174;2023-11-19T12:17:42;46.40;;;10.90;;
3297;SDS011;1661;53.572;10.174;2023-11-19T12:20:15;46.43;;;9.63;;
3297;SDS011;1661;53.572;10.174;2023-11-19T12:22:43;44.20;;;10.10;;
3297;SDS011;1661;53.572;10.174;2023-11-19T12:25:11;56.53;;;11.53;;
3297;SDS011;1661;53.572;10.174;2023-11-19T12:27:39;40.00;;;9.07;;
3297;SDS011;1661;53.572;10.174;2023-11-19T12:30:07;56.70;;;9.97;;
3297;SDS011;1661;53.572;10.174;2023-11-19T12:32:38;50.23;;;9.63;;
3297;SDS011;1661;53.572;10.174;2023-11-19T12:35:06;41.63;;;9.67;;
3297;SDS011;1661;53.572;10.174;2023-11-19T12:37:40;38.23;;;8.20;;
3297;SDS011;1661;53.572;10.174;2023-11-19T12:40:11;48.93;;;8.20;;
3297;SDS011;1661;53.572;10.174;2023-11-19T12:42:42;39.47;;;10.83;;
3297;SDS011;1661;53.572;10.174;2023-11-19T12:45:09;42.90;;;11.77;;
3297;SDS011;1661;53.572;10.174;2023-11-19T12:47:37;43.07;;;9.63;;
3297;SDS011;1661;53.572;10.174;2023-11-19T12:50:04;46.37;;;9.87;;
3297;SDS011;1661;53.572;10.174;2023-11-19T12:52:33;32.60;;;12.10;;
3297;SDS011;1661;53.572;10.174;2023-11-19T12:55:01;48.20;;;10.10;;
3297;SDS011;1661;53.572;10.174;2023-11-19T12:57:38;39.53;;;10.03;;
3297;SDS011;1661;53.572;10.174;2023-11-19T13:00:06;31.83;;;9.90;;
3297;SDS011;1661;53.572;10.174;2023-11-19T13:02:47;25.70;;;7.60;;
3297;SDS011;1661;53.572;10.174;2023-11-19T13:05:22;36.50;;;9.00;;
3297;SDS011;1661;53.572;10.174;2023-11-19T13:07:51;30.10;;;7.67;;
3297;SDS011;1661;53.572;10.174;2023-11-19T13:10:25;31.10;;;8.27;;
3297;SDS011;1661;53.572;10.174;2023-11-19T13:13:04;44.00;;;9.27;;
3297;SDS011;1661;53.572;10.174;2023-11-19T13:15:33;37.20;;;10.00;;
3297;SDS011;1661;53.572;10.174;2023-11-19T13:18:01;46.17;;;9.53;;
3297;SDS011;1661;53.572;10.174;2023-11-19T13:20:29;49.13;;;10.27;;
3297;SDS011;1661;53.572;10.174;2023-11-19T13:22:57;35.27;;;8.27;;
3297;SDS011;1661;53.572;10.174;2023-11-19T13:25:26;29.03;;;9.80;;
3297;SDS011;1661;53.572;10.174;2023-11-19T13:27:53;33.10;;;7.93;;
3297;SDS011;1661;53.572;10.174;2023-11-19T13:30:21;43.90;;;8.20;;
3297;SDS011;1661;53.572;10.174;2023-11-19T13:32:48;51.60;;;10.17;;
3297;SDS011;1661;53.572;10.174;2023-11-19T13:35:16;45.93;;;8.77;;
3297;SDS011;1661;53.572;10.174;2023-11-19T13:37:43;45.97;;;9.17;;
3297;SDS011;1661;53.572;10.174;2023-11-19T13:40:10;46.13;;;10.07;;
3297;SDS011;1661;53.572;10.174;2023-11-19T13:42:40;37.17;;;9.30;;
3297;SDS011;1661;53.572;10.174;2023-11-19T13:45:08;35.20;;;8.80;;
3297;SDS011;1661;53.572;10.174;2023-11-19T13:47:37;48.07;;;8.67;;
3297;SDS011;1661;53.572;10.174;2023-11-19T13:50:06;25.93;;;7.50;;
3297;SDS011;1661;53.572;10.174;2023-11-19T13:52:34;38.00;;;8.97;;
3297;SDS011;1661;53.572;10.174;2023-11-19T13:55:02;29.50;;;8.13;;
3297;SDS011;1661;53.572;10.174;2023-11-19T13:57:29;37.17;;;8.90;;
3297;SDS011;1661;53.572;10.174;2023-11-19T13:59:58;45.90;;;9.60;;
3297;SDS011;1661;53.572;10.174;2023-11-19T14:02:30;42.10;;;9.50;;
3297;SDS011;1661;53.572;10.174;2023-11-19T14:04:56;49.50;;;10.47;;
3297;SDS011;1661;53.572;10.174;2023-11-19T14:07:26;48.77;;;11.17;;
3297;SDS011;1661;53.572;10.174;2023-11-19T14:09:52;46.40;;;10.83;;
3297;SDS011;1661;53.572;10.174;2023-11-19T14:12:19;45.50;;;8.43;;
3297;SDS011;1661;53.572;10.174;2023-11-19T14:14:46;41.37;;;9.17;;
3297;SDS011;1661;53.572;10.174;2023-11-19T14:17:14;37.00;;;8.20;;
3297;SDS011;1661;53.572;10.174;2023-11-19T14:19:41;36.73;;;8.80;;
3297;SDS011;1661;53.572;10.174;2023-11-19T14:22:09;39.90;;;8.17;;
3297;SDS011;1661;53.572;10.174;2023-11-19T14:24:35;28.53;;;7.33;;
3297;SDS011;1661;53.572;10.174;2023-11-19T14:27:02;27.70;;;7.23;;
3297;SDS011;1661;53.572;10.174;2023-11-19T14:29:29;30.67;;;8.60;;
3297;SDS011;1661;53.572;10.174;2023-11-19T14:31:56;33.57;;;8.20;;
3297;SDS011;1661;53.572;10.174;2023-11-19T14:34:25;34.63;;;8.37;;
3297;SDS011;1661;53.572;10.174;2023-11-19T14:36:52;42.37;;;7.43;;
3297;SDS011;1661;53.572;10.174;2023-11-19T14:39:18;37.80;;;8.13;;
3297;SDS011;1661;53.572;10.174;2023-11-19T14:41:45;30.20;;;7.50;;
3297;SDS011;1661;53.572;10.174;2023-11-19T14:44:12;33.67;;;8.70;;
3297;SDS011;1661;53.572;10.174;2023-11-19T14:46:39;30.43;;;8.13;;
3297;SDS011;1661;53.572;10.174;2023-11-19T14:49:06;35.00;;;8.37;;
3297;SDS011;1661;53.572;10.174;2023-11-19T14:51:36;21.80;;;7.00;;
3297;SDS011;1661;53.572;10.174;2023-11-19T14:54:03;43.27;;;11.13;;
3297;SDS011;1661;53.572;10.174;2023-11-19T14:56:30;41.50;;;15.90;;